Time;durP1;ratioP1;P1;durP2;ratioP2;P2;SDS_P1;SDS_P2;PMS_P1;PMS_P2;Temp;Humidity;BMP_temperature;BMP_pressure;BME280_temperature;BME280_humidity;BME280_pressure;Samples;Min_cycle;Max_cycle;Signal;HPM_P1;HPM_P2
2022/10/10 00:00:49;;;;;;;11.27;5.30;;;;;;;;;;5020262;28;20041;-77
2022/10/10 00:03:15;;;;;;;16.52;5.93;;;;;;;;;;5015997;28;20041;-77
2022/10/10 00:05:41;;;;;;;9.60;4.70;;;;;;;;;;5018147;28;20034;-77
2022/10/10 00:08:07;;;;;;;18.85;6.38;;;;;;;;;;5029279;28;20040;-77
2022/10/10 00:10:34;;;;;;;12.98;6.47;;;;;;;;;;5015639;28;20113;-77
2022/10/10 00:13:00;;;;;;;16.80;6.85;;;;;;;;;;5028256;28;20037;-77
2022/10/10 00:15:26;;;;;;;12.02;5.78;;;;;;;;;;5017816;28;20416;-77
2022/10/10 00:17:52;;;;;;;12.50;6.07;;;;;;;;;;5022137;28;20030;-77
2022/10/10 00:20:20;;;;;;;12.65;6.15;;;;;;;;;;5020241;28;20109;-76
2022/10/10 00:22:46;;;;;;;11.80;6.05;;;;;;;;;;5021338;28;20037;-76
2022/10/10 00:25:12;;;;;;;16.58;7.88;;;;;;;;;;5018425;28;20436;-77
2022/10/10 00:27:38;;;;;;;15.70;9.50;;;;;;;;;;5017202;28;20037;-76
2022/10/10 00:30:05;;;;;;;14.20;9.02;;;;;;;;;;5025236;28;20048;-77
2022/10/10 00:32:31;;;;;;;14.43;8.10;;;;;;;;;;5016979;28;20121;-77
2022/10/10 00:34:58;;;;;;;18.42;9.05;;;;;;;;;;5028598;28;20109;-76
2022/10/10 00:37:24;;;;;;;16.20;8.02;;;;;;;;;;5021817;28;20534;-77
2022/10/10 00:39:50;;;;;;;14.52;8.63;;;;;;;;;;5025545;28;20025;-77
2022/10/10 00:42:16;;;;;;;15.73;7.55;;;;;;;;;;5025946;28;20038;-76
2022/10/10 00:44:44;;;;;;;13.35;7.78;;;;;;;;;;5024595;28;20052;-77
2022/10/10 00:47:10;;;;;;;15.30;6.60;;;;;;;;;;5024579;28;20049;-76
2022/10/10 00:49:37;;;;;;;15.68;8.43;;;;;;;;;;5009168;28;20033;-76
2022/10/10 00:52:04;;;;;;;12.15;7.25;;;;;;;;;;5016450;28;20049;-77
2022/10/10 00:54:31;;;;;;;14.68;6.15;;;;;;;;;;5021596;28;20037;-77
2022/10/10 00:57:03;;;;;;;12.43;5.90;;;;;;;;;;5023526;28;20033;-76
2022/10/10 00:59:33;;;;;;;12.02;5.45;;;;;;;;;;5009484;28;20037;-76
2022/10/10 01:02:00;;;;;;;13.55;6.28;;;;;;;;;;5021440;28;20159;-77
2022/10/10 01:04:29;;;;;;;11.15;6.40;;;;;;;;;;5028241;28;20033;-77
2022/10/10 01:06:55;;;;;;;12.27;7.75;;;;;;;;;;5019383;28;20073;-77
2022/10/10 01:09:21;;;;;;;19.27;9.27;;;;;;;;;;5025351;28;20025;-77
2022/10/10 01:12:10;;;;;;;14.90;10.15;;;;;;;;;;5018319;28;20046;-77
2022/10/10 01:14:59;;;;;;;15.40;9.02;;;;;;;;;;4993685;28;20038;-76
2022/10/10 01:17:34;;;;;;;16.00;9.70;;;;;;;;;;5009183;28;20046;-76
2022/10/10 01:20:19;;;;;;;14.25;8.48;;;;;;;;;;5007929;28;20072;-76
2022/10/10 01:22:57;;;;;;;13.25;7.07;;;;;;;;;;5018750;28;20065;-76
2022/10/10 01:25:32;;;;;;;10.43;6.53;;;;;;;;;;5028216;28;20033;-77
2022/10/10 01:28:06;;;;;;;21.85;8.20;;;;;;;;;;5029009;28;20033;-76
2022/10/10 01:30:34;;;;;;;15.52;7.22;;;;;;;;;;5022052;28;20041;-76
2022/10/10 01:33:03;;;;;;;13.60;6.93;;;;;;;;;;5027229;28;20040;-76
2022/10/10 01:35:29;;;;;;;13.02;7.30;;;;;;;;;;5015955;28;20129;-76
2022/10/10 01:37:55;;;;;;;14.68;7.22;;;;;;;;;;5025363;28;20117;-77
2022/10/10 01:40:25;;;;;;;10.82;6.80;;;;;;;;;;5027501;28;20503;-76
2022/10/10 01:42:53;;;;;;;11.85;7.38;;;;;;;;;;5019007;28;20426;-76
2022/10/10 01:45:20;;;;;;;13.43;7.90;;;;;;;;;;5028008;28;20041;-77
2022/10/10 01:47:46;;;;;;;13.10;7.20;;;;;;;;;;5026891;28;20036;-76
2022/10/10 01:50:15;;;;;;;13.50;6.85;;;;;;;;;;5026746;28;20037;-76
2022/10/10 01:52:50;;;;;;;11.25;6.65;;;;;;;;;;5025230;28;20475;-76
2022/10/10 01:55:19;;;;;;;11.50;7.88;;;;;;;;;;5030726;28;20054;-76
2022/10/10 01:58:04;;;;;;;13.63;8.73;;;;;;;;;;5018257;28;20026;-77
2022/10/10 02:00:34;;;;;;;20.88;8.23;;;;;;;;;;5026938;28;20061;-77
2022/10/10 02:03:00;;;;;;;14.30;8.32;;;;;;;;;;5022510;28;20040;-76
2022/10/10 02:05:38;;;;;;;14.52;9.27;;;;;;;;;;5030759;28;20041;-77
2022/10/10 02:08:30;;;;;;;13.48;7.88;;;;;;;;;;5023818;28;20033;-76
2022/10/10 02:10:59;;;;;;;16.13;8.30;;;;;;;;;;5004287;28;20062;-76
2022/10/10 02:13:28;;;;;;;13.10;7.82;;;;;;;;;;5012409;28;22279;-76
2022/10/10 02:15:55;;;;;;;10.45;6.97;;;;;;;;;;5025707;28;20107;-77
2022/10/10 02:18:23;;;;;;;15.45;9.10;;;;;;;;;;5025629;28;20037;-75
2022/10/10 02:20:50;;;;;;;9.48;6.88;;;;;;;;;;5028119;28;20134;-77
2022/10/10 02:23:18;;;;;;;18.02;9.52;;;;;;;;;;5025776;28;20364;-77
2022/10/10 02:25:47;;;;;;;12.85;8.00;;;;;;;;;;5020009;28;20061;-76
2022/10/10 02:28:36;;;;;;;13.60;6.88;;;;;;;;;;5023959;28;20080;-76
2022/10/10 02:31:05;;;;;;;14.23;6.40;;;;;;;;;;4991004;28;20053;-76
2022/10/10 02:33:33;;;;;;;11.63;5.80;;;;;;;;;;5026813;28;20025;-76
2022/10/10 02:36:00;;;;;;;12.20;6.18;;;;;;;;;;5011119;28;20065;-76
2022/10/10 02:38:27;;;;;;;17.83;9.00;;;;;;;;;;5022210;28;20022;-77
2022/10/10 02:40:54;;;;;;;12.18;7.20;;;;;;;;;;5026715;28;20657;-76
2022/10/10 02:43:20;;;;;;;13.30;7.38;;;;;;;;;;5028990;28;20041;-77
2022/10/10 02:45:46;;;;;;;11.98;6.45;;;;;;;;;;5027680;28;20049;-76
2022/10/10 02:48:12;;;;;;;12.52;7.75;;;;;;;;;;5018902;28;20083;-77
2022/10/10 02:50:38;;;;;;;11.23;6.22;;;;;;;;;;5020825;28;20628;-76
2022/10/10 02:53:04;;;;;;;10.30;6.00;;;;;;;;;;5025097;28;20061;-77
2022/10/10 02:55:30;;;;;;;13.32;5.65;;;;;;;;;;5021354;28;20045;-77
2022/10/10 02:57:56;;;;;;;19.63;6.75;;;;;;;;;;5019038;28;20457;-77
2022/10/10 03:00:22;;;;;;;9.95;4.72;;;;;;;;;;5012934;28;20030;-76
2022/10/10 03:02:48;;;;;;;14.13;5.53;;;;;;;;;;5029136;28;20144;-77
2022/10/10 03:05:14;;;;;;;13.20;5.40;;;;;;;;;;5028909;28;20042;-76
2022/10/10 03:07:40;;;;;;;8.70;4.70;;;;;;;;;;5019496;28;20103;-77
2022/10/10 03:10:07;;;;;;;8.32;5.35;;;;;;;;;;5030138;28;20762;-76
2022/10/10 03:12:33;;;;;;;11.02;6.30;;;;;;;;;;5024669;28;20029;-77
2022/10/10 03:14:59;;;;;;;11.75;6.18;;;;;;;;;;5025074;28;20065;-77
2022/10/10 03:17:25;;;;;;;12.13;6.25;;;;;;;;;;5011176;28;20099;-77
2022/10/10 03:19:51;;;;;;;16.85;7.03;;;;;;;;;;5027191;28;20037;-77
2022/10/10 03:22:17;;;;;;;12.77;5.88;;;;;;;;;;5024246;28;20025;-77
2022/10/10 03:24:43;;;;;;;9.05;5.72;;;;;;;;;;5021431;28;20476;-77
2022/10/10 03:27:09;;;;;;;10.30;4.93;;;;;;;;;;5026687;28;20037;-77
2022/10/10 03:29:35;;;;;;;13.38;6.60;;;;;;;;;;5023839;28;20037;-76
2022/10/10 03:32:01;;;;;;;11.95;6.03;;;;;;;;;;5018510;28;20034;-77
2022/10/10 03:34:27;;;;;;;11.65;6.03;;;;;;;;;;5024006;28;20104;-76
2022/10/10 03:36:53;;;;;;;9.60;5.28;;;;;;;;;;5025403;28;20035;-76
2022/10/10 03:39:19;;;;;;;10.48;5.90;;;;;;;;;;5019741;28;20079;-76
2022/10/10 03:41:45;;;;;;;9.57;4.70;;;;;;;;;;5010283;28;20456;-77
2022/10/10 03:44:11;;;;;;;12.50;5.28;;;;;;;;;;5025641;28;20030;-77
2022/10/10 03:46:37;;;;;;;13.38;5.85;;;;;;;;;;5028550;28;20025;-76
2022/10/10 03:49:03;;;;;;;11.07;5.40;;;;;;;;;;5023817;28;20065;-76
2022/10/10 03:51:29;;;;;;;11.13;5.43;;;;;;;;;;5022282;28;20115;-77
2022/10/10 03:53:55;;;;;;;10.63;5.90;;;;;;;;;;5023233;28;20060;-76
2022/10/10 03:56:21;;;;;;;14.52;5.70;;;;;;;;;;5028716;28;20029;-77
2022/10/10 03:58:47;;;;;;;7.90;5.05;;;;;;;;;;5026391;28;20555;-77
2022/10/10 04:01:13;;;;;;;9.18;5.18;;;;;;;;;;5015906;28;20034;-76
2022/10/10 04:03:39;;;;;;;12.55;6.18;;;;;;;;;;5025751;28;20129;-77
2022/10/10 04:06:06;;;;;;;11.80;5.38;;;;;;;;;;5028128;28;20583;-77
2022/10/10 04:08:32;;;;;;;11.25;5.25;;;;;;;;;;5027518;28;20061;-77
2022/10/10 04:10:58;;;;;;;12.45;5.50;;;;;;;;;;5028243;28;20037;-77
2022/10/10 04:13:27;;;;;;;10.73;5.15;;;;;;;;;;5021150;28;20445;-76
2022/10/10 04:15:54;;;;;;;11.40;5.57;;;;;;;;;;5028317;28;20033;-76
2022/10/10 04:18:20;;;;;;;13.23;5.18;;;;;;;;;;5026963;28;20029;-77
2022/10/10 04:20:46;;;;;;;9.05;4.95;;;;;;;;;;5027783;28;20037;-76
2022/10/10 04:23:12;;;;;;;14.95;5.25;;;;;;;;;;5028737;28;20515;-77
2022/10/10 04:25:38;;;;;;;9.65;4.93;;;;;;;;;;5018643;28;20769;-77
2022/10/10 04:28:04;;;;;;;13.38;5.20;;;;;;;;;;5020948;28;20051;-76
2022/10/10 04:30:32;;;;;;;15.65;5.85;;;;;;;;;;5020699;28;20056;-77
2022/10/10 04:32:58;;;;;;;11.00;6.38;;;;;;;;;;5017632;28;20555;-76
2022/10/10 04:35:24;;;;;;;11.98;5.63;;;;;;;;;;5016102;28;20292;-77
2022/10/10 04:37:51;;;;;;;11.18;5.60;;;;;;;;;;5020841;28;20710;-77
2022/10/10 04:40:17;;;;;;;10.68;5.35;;;;;;;;;;5020906;28;20026;-77
2022/10/10 04:42:43;;;;;;;12.05;5.63;;;;;;;;;;5023744;28;20041;-77
2022/10/10 04:45:09;;;;;;;14.30;5.55;;;;;;;;;;5010436;28;20034;-77
2022/10/10 04:47:35;;;;;;;10.82;4.70;;;;;;;;;;5021075;28;20622;-77
2022/10/10 04:50:01;;;;;;;9.43;3.80;;;;;;;;;;5027905;28;20476;-77
2022/10/10 04:52:27;;;;;;;9.75;3.95;;;;;;;;;;5023868;28;20029;-77
2022/10/10 04:54:53;;;;;;;12.68;3.65;;;;;;;;;;5016978;28;20054;-76
2022/10/10 04:57:19;;;;;;;7.75;3.50;;;;;;;;;;5020284;28;20030;-77
2022/10/10 04:59:45;;;;;;;11.30;4.18;;;;;;;;;;5029528;28;20032;-76
2022/10/10 05:02:11;;;;;;;7.03;4.45;;;;;;;;;;5028667;28;20046;-77
2022/10/10 05:04:37;;;;;;;8.75;5.25;;;;;;;;;;5026806;28;20488;-77
2022/10/10 05:07:03;;;;;;;12.18;5.15;;;;;;;;;;5031644;28;20120;-76
2022/10/10 05:09:32;;;;;;;12.63;5.00;;;;;;;;;;5032897;28;20138;-77
2022/10/10 05:11:58;;;;;;;12.18;6.22;;;;;;;;;;5030772;28;20059;-77
2022/10/10 05:14:24;;;;;;;9.15;4.78;;;;;;;;;;5023158;28;20109;-77
2022/10/10 05:16:50;;;;;;;10.82;4.60;;;;;;;;;;5029881;28;20560;-77
2022/10/10 05:19:16;;;;;;;11.45;5.38;;;;;;;;;;5031461;28;20025;-77
2022/10/10 05:21:42;;;;;;;10.30;6.35;;;;;;;;;;5025579;28;20045;-76
2022/10/10 05:24:08;;;;;;;12.82;6.90;;;;;;;;;;5027480;28;20160;-76
2022/10/10 05:26:34;;;;;;;14.27;6.22;;;;;;;;;;5028333;28;20072;-77
2022/10/10 05:29:00;;;;;;;15.50;5.13;;;;;;;;;;5026531;28;20032;-77
2022/10/10 05:31:27;;;;;;;12.82;5.95;;;;;;;;;;5026731;28;20033;-76
2022/10/10 05:33:53;;;;;;;10.82;3.72;;;;;;;;;;5029139;28;20436;-76
2022/10/10 05:36:19;;;;;;;6.13;3.47;;;;;;;;;;5024201;28;20041;-77
2022/10/10 05:38:45;;;;;;;8.90;4.20;;;;;;;;;;5034139;28;20026;-77
2022/10/10 05:41:11;;;;;;;9.07;3.95;;;;;;;;;;5031265;28;20029;-76
2022/10/10 05:43:37;;;;;;;9.05;4.65;;;;;;;;;;5027054;28;20029;-76
2022/10/10 05:46:04;;;;;;;11.63;5.57;;;;;;;;;;5031003;28;20048;-76
2022/10/10 05:48:30;;;;;;;14.82;6.45;;;;;;;;;;5030863;28;20033;-76
2022/10/10 05:50:57;;;;;;;10.85;5.32;;;;;;;;;;5029803;28;20037;-76
2022/10/10 05:53:23;;;;;;;13.63;5.82;;;;;;;;;;5026051;28;20117;-77
2022/10/10 05:55:50;;;;;;;9.85;4.82;;;;;;;;;;5025814;28;20042;-76
2022/10/10 05:58:15;;;;;;;17.88;6.05;;;;;;;;;;5021878;28;20036;-77
2022/10/10 06:00:43;;;;;;;10.93;4.97;;;;;;;;;;5036183;28;20037;-76
2022/10/10 06:03:12;;;;;;;13.13;5.50;;;;;;;;;;5030927;28;20030;-76
2022/10/10 06:05:38;;;;;;;8.65;3.95;;;;;;;;;;5024064;28;20109;-76
2022/10/10 06:08:04;;;;;;;8.85;4.20;;;;;;;;;;5023067;28;20041;-76
2022/10/10 06:10:33;;;;;;;11.15;5.22;;;;;;;;;;5028288;28;20072;-75
2022/10/10 06:12:59;;;;;;;13.27;6.65;;;;;;;;;;5026009;28;20033;-75
2022/10/10 06:15:25;;;;;;;13.05;7.05;;;;;;;;;;5025153;28;20033;-75
2022/10/10 06:17:51;;;;;;;13.05;6.30;;;;;;;;;;5022509;28;20039;-75
2022/10/10 06:20:17;;;;;;;16.77;5.95;;;;;;;;;;5016974;28;20453;-75
2022/10/10 06:22:43;;;;;;;13.77;5.55;;;;;;;;;;5017931;28;20033;-75
2022/10/10 06:25:09;;;;;;;16.00;5.70;;;;;;;;;;5017283;28;20068;-75
2022/10/10 06:27:35;;;;;;;10.52;6.05;;;;;;;;;;5024250;28;20576;-75
2022/10/10 06:30:01;;;;;;;11.85;4.18;;;;;;;;;;5021072;28;20037;-75
2022/10/10 06:32:27;;;;;;;10.05;4.63;;;;;;;;;;5020836;28;20033;-75
2022/10/10 06:34:53;;;;;;;12.90;5.65;;;;;;;;;;5016948;28;20044;-75
2022/10/10 06:37:19;;;;;;;14.02;5.00;;;;;;;;;;5019466;28;20095;-75
2022/10/10 06:39:45;;;;;;;11.60;5.38;;;;;;;;;;5023196;28;20052;-75
2022/10/10 06:42:11;;;;;;;13.00;5.70;;;;;;;;;;5018012;28;20034;-75
2022/10/10 06:44:37;;;;;;;10.32;5.13;;;;;;;;;;5023139;28;20056;-75
2022/10/10 06:47:03;;;;;;;10.15;5.22;;;;;;;;;;5016880;28;20084;-75
2022/10/10 06:49:29;;;;;;;10.85;5.10;;;;;;;;;;5023561;28;20063;-75
2022/10/10 06:51:55;;;;;;;17.35;5.65;;;;;;;;;;5024165;28;20086;-75
2022/10/10 06:54:21;;;;;;;12.27;5.30;;;;;;;;;;5020379;28;20481;-75
2022/10/10 06:56:47;;;;;;;14.90;5.45;;;;;;;;;;5017060;28;20026;-75
2022/10/10 06:59:13;;;;;;;14.65;6.03;;;;;;;;;;5021194;28;20381;-75
2022/10/10 07:01:39;;;;;;;15.35;6.13;;;;;;;;;;5017333;28;20605;-75
2022/10/10 07:04:05;;;;;;;18.98;7.65;;;;;;;;;;5021477;28;20059;-75
2022/10/10 07:06:31;;;;;;;13.13;6.75;;;;;;;;;;5017099;28;20481;-76
2022/10/10 07:08:57;;;;;;;14.98;6.57;;;;;;;;;;5019868;28;20453;-75
2022/10/10 07:11:24;;;;;;;15.05;6.25;;;;;;;;;;5022075;28;20048;-75
2022/10/10 07:13:52;;;;;;;11.80;6.20;;;;;;;;;;5024380;28;20069;-75
2022/10/10 07:16:18;;;;;;;10.80;4.82;;;;;;;;;;5018823;28;20354;-75
2022/10/10 07:18:44;;;;;;;13.75;5.78;;;;;;;;;;5026167;28;20520;-76
2022/10/10 07:21:10;;;;;;;11.43;5.32;;;;;;;;;;5022879;28;20039;-75
2022/10/10 07:23:36;;;;;;;15.70;5.53;;;;;;;;;;5025796;28;20029;-76
2022/10/10 07:26:07;;;;;;;13.10;5.45;;;;;;;;;;5022827;28;20041;-75
2022/10/10 07:28:34;;;;;;;12.15;5.78;;;;;;;;;;5019927;28;20037;-74
2022/10/10 07:31:01;;;;;;;13.00;5.50;;;;;;;;;;5017349;28;20674;-76
2022/10/10 07:33:31;;;;;;;15.00;5.80;;;;;;;;;;5020062;28;20041;-76
2022/10/10 07:35:58;;;;;;;13.43;6.40;;;;;;;;;;5022302;28;20065;-76
2022/10/10 07:38:25;;;;;;;14.40;5.60;;;;;;;;;;5017601;28;20024;-76
2022/10/10 07:40:51;;;;;;;11.38;5.38;;;;;;;;;;5021803;28;20473;-76
2022/10/10 07:43:17;;;;;;;12.95;4.68;;;;;;;;;;5022694;28;20464;-76
2022/10/10 07:45:43;;;;;;;18.15;4.10;;;;;;;;;;5022011;28;20080;-76
2022/10/10 07:48:09;;;;;;;11.13;4.45;;;;;;;;;;5016298;28;20621;-76
2022/10/10 07:50:35;;;;;;;9.70;3.53;;;;;;;;;;5021588;28;20041;-76
2022/10/10 07:53:01;;;;;;;8.88;3.78;;;;;;;;;;5024439;28;20037;-76
2022/10/10 07:55:27;;;;;;;12.50;3.67;;;;;;;;;;5023889;28;20588;-76
2022/10/10 07:57:53;;;;;;;13.27;4.10;;;;;;;;;;5016623;28;20028;-76
2022/10/10 08:00:19;;;;;;;13.43;4.10;;;;;;;;;;5027813;28;20044;-76
2022/10/10 08:02:45;;;;;;;7.93;3.50;;;;;;;;;;5022838;28;20669;-76
2022/10/10 08:05:11;;;;;;;11.13;3.13;;;;;;;;;;5021644;28;20040;-76
2022/10/10 08:07:37;;;;;;;9.65;3.80;;;;;;;;;;5021431;28;20179;-76
2022/10/10 08:10:03;;;;;;;9.02;3.60;;;;;;;;;;5018134;28;20540;-75
2022/10/10 08:12:29;;;;;;;13.20;4.45;;;;;;;;;;5019971;28;20018;-76
2022/10/10 08:14:55;;;;;;;10.77;4.20;;;;;;;;;;5027640;28;20076;-76
2022/10/10 08:17:21;;;;;;;14.38;4.35;;;;;;;;;;5022909;28;20108;-76
2022/10/10 08:19:47;;;;;;;10.82;4.45;;;;;;;;;;5017963;28;20088;-76
2022/10/10 08:22:13;;;;;;;13.90;4.75;;;;;;;;;;5017525;28;20040;-76
2022/10/10 08:24:39;;;;;;;12.07;4.88;;;;;;;;;;5022190;28;20033;-76
2022/10/10 08:27:05;;;;;;;12.55;4.53;;;;;;;;;;5026455;28;20042;-76
2022/10/10 08:29:32;;;;;;;9.18;3.92;;;;;;;;;;5023052;28;21021;-76
2022/10/10 08:31:58;;;;;;;11.75;4.47;;;;;;;;;;5019673;28;20495;-76
2022/10/10 08:34:24;;;;;;;12.35;4.38;;;;;;;;;;5026250;28;20068;-76
2022/10/10 08:36:50;;;;;;;10.52;4.00;;;;;;;;;;5025935;28;20033;-76
2022/10/10 08:39:17;;;;;;;11.40;4.80;;;;;;;;;;5013943;28;20069;-76
2022/10/10 08:41:49;;;;;;;11.50;4.20;;;;;;;;;;5022600;28;20033;-76
2022/10/10 08:44:18;;;;;;;10.93;4.40;;;;;;;;;;5027974;28;20037;-76
2022/10/10 08:46:46;;;;;;;19.85;5.72;;;;;;;;;;5023715;28;20800;-76
2022/10/10 08:49:18;;;;;;;14.27;4.88;;;;;;;;;;5024703;28;20479;-76
2022/10/10 08:51:44;;;;;;;;;;;;;;;;;;5025005;28;20120;-75
2022/10/10 08:54:12;;;;;;;8.57;4.20;;;;;;;;;;5023241;28;20102;-76
2022/10/10 08:56:39;;;;;;;10.57;4.30;;;;;;;;;;5022243;28;20037;-76
2022/10/10 08:59:25;;;;;;;15.80;5.47;;;;;;;;;;5025689;28;20358;-77
2022/10/10 09:01:55;;;;;;;18.00;6.10;;;;;;;;;;5022676;28;20133;-76
2022/10/10 09:04:21;;;;;;;15.57;6.50;;;;;;;;;;5024705;28;20056;-76
2022/10/10 09:06:53;;;;;;;17.35;6.18;;;;;;;;;;5026704;28;20064;-76
2022/10/10 09:09:19;;;;;;;;;;;;;;;;;;5021513;28;20030;-77
2022/10/10 09:11:53;;;;;;;10.25;4.18;;;;;;;;;;5020539;28;20677;-76
2022/10/10 09:14:31;;;;;;;9.38;3.80;;;;;;;;;;5022772;28;20057;-76
2022/10/10 09:17:16;;;;;;;7.57;3.33;;;;;;;;;;5023203;28;20029;-75
2022/10/10 09:20:08;;;;;;;9.55;3.70;;;;;;;;;;5025828;28;20084;-75
2022/10/10 09:22:46;;;;;;;9.00;3.22;;;;;;;;;;4977025;28;20042;-76
2022/10/10 09:25:20;;;;;;;8.23;2.70;;;;;;;;;;5019726;28;20044;-76
2022/10/10 09:27:52;;;;;;;9.60;3.25;;;;;;;;;;5023455;28;20040;-76
2022/10/10 09:30:19;;;;;;;11.13;3.22;;;;;;;;;;5012129;28;20568;-76
2022/10/10 09:32:50;;;;;;;6.72;2.90;;;;;;;;;;5020746;28;20124;-76
2022/10/10 09:35:18;;;;;;;8.05;3.70;;;;;;;;;;5021109;28;20187;-76
2022/10/10 09:37:45;;;;;;;10.27;3.75;;;;;;;;;;5017310;28;20032;-75
2022/10/10 09:40:30;;;;;;;6.85;2.83;;;;;;;;;;5015990;28;20643;-76
2022/10/10 09:42:56;;;;;;;8.20;4.05;;;;;;;;;;5028732;28;20029;-76
2022/10/10 09:45:22;;;;;;;8.10;3.80;;;;;;;;;;5022243;28;20038;-76
2022/10/10 09:47:50;;;;;;;10.52;3.65;;;;;;;;;;5020210;28;20075;-76
2022/10/10 09:50:17;;;;;;;15.57;3.95;;;;;;;;;;5026172;28;20040;-76
2022/10/10 09:52:43;;;;;;;10.75;2.83;;;;;;;;;;5029744;28;20703;-76
2022/10/10 09:55:33;;;;;;;9.50;3.10;;;;;;;;;;5027029;28;20046;-76
2022/10/10 09:58:02;;;;;;;10.00;3.30;;;;;;;;;;5019175;28;20926;-76
2022/10/10 10:00:33;;;;;;;9.77;2.88;;;;;;;;;;5027363;28;20061;-77
2022/10/10 10:03:10;;;;;;;9.57;2.40;;;;;;;;;;5028241;28;20588;-76
2022/10/10 10:05:36;;;;;;;6.15;2.35;;;;;;;;;;5025634;28;20053;-76
2022/10/10 10:08:02;;;;;;;14.35;2.53;;;;;;;;;;5026337;28;20104;-76
2022/10/10 10:10:31;;;;;;;8.95;3.05;;;;;;;;;;5024611;28;20122;-77
2022/10/10 10:12:57;;;;;;;13.35;3.60;;;;;;;;;;5026319;28;20052;-76
2022/10/10 10:15:23;;;;;;;10.85;3.33;;;;;;;;;;5024139;28;20591;-76
2022/10/10 10:18:08;;;;;;;8.02;2.90;;;;;;;;;;5024502;28;20029;-77
2022/10/10 10:20:35;;;;;;;9.10;2.85;;;;;;;;;;5026649;28;20068;-76
2022/10/10 10:23:01;;;;;;;5.10;2.47;;;;;;;;;;5029996;28;20443;-76
2022/10/10 10:25:35;;;;;;;7.65;2.45;;;;;;;;;;5021202;28;20112;-76
2022/10/10 10:28:10;;;;;;;6.53;1.80;;;;;;;;;;5029034;28;20084;-76
2022/10/10 10:30:37;;;;;;;6.15;1.50;;;;;;;;;;5030108;28;20052;-77
2022/10/10 10:33:13;;;;;;;6.85;1.63;;;;;;;;;;5026181;28;20025;-76
2022/10/10 10:35:43;;;;;;;6.65;2.00;;;;;;;;;;5023386;28;20948;-77
2022/10/10 10:38:27;;;;;;;6.75;1.92;;;;;;;;;;5026381;28;20033;-76
2022/10/10 10:41:07;;;;;;;9.65;2.05;;;;;;;;;;5026667;28;20136;-75
2022/10/10 10:43:52;;;;;;;7.93;2.20;;;;;;;;;;5022858;28;20164;-77
2022/10/10 10:46:21;;;;;;;9.57;2.10;;;;;;;;;;5029017;28;20061;-76
2022/10/10 10:48:47;;;;;;;5.90;1.65;;;;;;;;;;5017981;28;20449;-79
2022/10/10 10:51:25;;;;;;;7.00;1.85;;;;;;;;;;5027423;28;20056;-79
2022/10/10 10:53:51;;;;;;;7.75;1.70;;;;;;;;;;5012932;28;20448;-79
2022/10/10 10:56:17;;;;;;;4.53;1.50;;;;;;;;;;4999320;28;20030;-79
2022/10/10 10:58:46;;;;;;;10.68;2.00;;;;;;;;;;5007948;28;20029;-80
2022/10/10 11:01:20;;;;;;;8.65;1.90;;;;;;;;;;5001212;28;20041;-79
2022/10/10 11:03:46;;;;;;;5.60;1.30;;;;;;;;;;5001005;28;20058;-80
2022/10/10 11:06:12;;;;;;;4.18;1.60;;;;;;;;;;5004126;28;20075;-79
2022/10/10 11:08:47;;;;;;;6.38;1.45;;;;;;;;;;5002050;28;20026;-79
2022/10/10 11:11:26;;;;;;;9.38;1.50;;;;;;;;;;5004091;28;20080;-80
2022/10/10 11:13:58;;;;;;;6.32;1.65;;;;;;;;;;5000922;28;20026;-79
2022/10/10 11:16:37;;;;;;;9.80;1.60;;;;;;;;;;4998395;28;20034;-80
2022/10/10 11:19:22;;;;;;;4.53;1.33;;;;;;;;;;5001642;28;20030;-79
2022/10/10 11:22:09;;;;;;;8.15;1.77;;;;;;;;;;5007822;28;20030;-79
2022/10/10 11:24:41;;;;;;;9.23;1.92;;;;;;;;;;5013579;28;20081;-80
2022/10/10 11:27:13;;;;;;;5.57;1.63;;;;;;;;;;5010228;28;20133;-79
2022/10/10 11:30:03;;;;;;;7.75;1.83;;;;;;;;;;5004793;28;20076;-79
2022/10/10 11:32:49;;;;;;;5.63;1.58;;;;;;;;;;5008380;28;20037;-79
2022/10/10 11:35:15;;;;;;;4.45;1.35;;;;;;;;;;5001251;28;20054;-79
2022/10/10 11:37:45;;;;;;;3.83;1.25;;;;;;;;;;5001427;28;20088;-79
2022/10/10 11:40:23;;;;;;;3.92;0.93;;;;;;;;;;5005317;28;20034;-79
2022/10/10 11:42:52;;;;;;;2.75;0.85;;;;;;;;;;5004781;28;20034;-79
2022/10/10 11:45:21;;;;;;;4.85;0.80;;;;;;;;;;4999138;28;20117;-79
2022/10/10 11:47:56;;;;;;;4.85;1.23;;;;;;;;;;5007018;28;20034;-79
2022/10/10 11:50:29;;;;;;;2.33;0.80;;;;;;;;;;5007596;28;20449;-79
2022/10/10 11:53:04;;;;;;;3.00;1.00;;;;;;;;;;5015734;28;20461;-79
2022/10/10 11:55:43;;;;;;;5.30;0.80;;;;;;;;;;5023446;28;20053;-79
2022/10/10 11:58:09;;;;;;;3.25;0.82;;;;;;;;;;5016802;28;20037;-79
2022/10/10 12:00:47;;;;;;;3.85;1.30;;;;;;;;;;5022086;28;20414;-80
2022/10/10 12:03:13;;;;;;;3.88;1.20;;;;;;;;;;5016091;28;20113;-79
2022/10/10 12:05:42;;;;;;;2.70;0.90;;;;;;;;;;5010022;28;20814;-80
2022/10/10 12:08:17;;;;;;;3.40;0.90;;;;;;;;;;5025721;28;20037;-80
2022/10/10 12:10:47;;;;;;;4.20;0.77;;;;;;;;;;5020178;28;20044;-79
2022/10/10 12:13:23;;;;;;;5.93;1.17;;;;;;;;;;5019200;28;20758;-79
2022/10/10 12:15:53;;;;;;;4.05;1.00;;;;;;;;;;5026274;28;20037;-79
2022/10/10 12:18:27;;;;;;;5.20;0.90;;;;;;;;;;5027549;28;20117;-79
2022/10/10 12:21:25;;;;;;;4.03;0.70;;;;;;;;;;5021861;28;20045;-79
2022/10/10 12:24:03;;;;;;;4.20;0.70;;;;;;;;;;4996270;28;20456;-79
2022/10/10 12:26:48;;;;;;;5.78;0.90;;;;;;;;;;5020190;28;20880;-79
2022/10/10 12:29:14;;;;;;;4.47;1.08;;;;;;;;;;5025815;28;20033;-78
2022/10/10 12:31:40;;;;;;;3.25;0.75;;;;;;;;;;5027092;28;20114;-79
2022/10/10 12:34:35;;;;;;;2.00;0.73;;;;;;;;;;5026590;28;20388;-79
2022/10/10 12:37:21;;;;;;;5.22;0.88;;;;;;;;;;5027300;28;20592;-79
2022/10/10 12:40:06;;;;;;;3.28;0.80;;;;;;;;;;5026023;28;20108;-79
2022/10/10 12:42:40;;;;;;;5.32;1.05;;;;;;;;;;5013809;28;20041;-79
2022/10/10 12:45:24;;;;;;;3.40;0.70;;;;;;;;;;5030131;28;20040;-79
2022/10/10 12:47:52;;;;;;;5.75;1.00;;;;;;;;;;5029875;28;20782;-79
2022/10/10 12:50:25;;;;;;;3.72;1.00;;;;;;;;;;5028927;28;20049;-79
2022/10/10 12:52:54;;;;;;;2.78;0.70;;;;;;;;;;5017668;28;20124;-79
2022/10/10 12:55:20;;;;;;;2.63;1.23;;;;;;;;;;5026717;28;20129;-80
2022/10/10 12:57:47;;;;;;;7.70;1.23;;;;;;;;;;5028981;28;20112;-79
2022/10/10 13:00:18;;;;;;;4.43;0.98;;;;;;;;;;5036118;28;20040;-79
2022/10/10 13:02:45;;;;;;;5.10;1.13;;;;;;;;;;5036892;28;20033;-79
2022/10/10 13:05:14;;;;;;;6.75;1.05;;;;;;;;;;5030900;28;20036;-79
2022/10/10 13:07:41;;;;;;;7.50;1.27;;;;;;;;;;5035424;28;20044;-79
2022/10/10 13:10:15;;;;;;;5.05;1.30;;;;;;;;;;5025637;28;20064;-79
2022/10/10 13:12:41;;;;;;;4.38;1.17;;;;;;;;;;5027718;28;20025;-79
2022/10/10 13:15:20;;;;;;;5.25;1.00;;;;;;;;;;5029610;28;20395;-79
2022/10/10 13:17:46;;;;;;;2.92;0.77;;;;;;;;;;5018072;28;20041;-79
2022/10/10 13:20:27;;;;;;;4.43;0.88;;;;;;;;;;5037716;28;20091;-78
2022/10/10 13:22:55;;;;;;;3.50;0.80;;;;;;;;;;5034600;28;20037;-79
2022/10/10 13:25:21;;;;;;;5.85;0.82;;;;;;;;;;5029470;28;20037;-79
2022/10/10 13:27:47;;;;;;;4.22;1.00;;;;;;;;;;5032819;28;20041;-79
2022/10/10 13:30:18;;;;;;;2.85;0.90;;;;;;;;;;5027900;28;20034;-79
2022/10/10 13:32:45;;;;;;;5.63;1.00;;;;;;;;;;5023362;28;20053;-79
2022/10/10 13:35:20;;;;;;;3.38;0.70;;;;;;;;;;5029656;28;20484;-79
2022/10/10 13:37:56;;;;;;;4.88;0.88;;;;;;;;;;5040320;28;20034;-79
2022/10/10 13:40:23;;;;;;;3.58;0.73;;;;;;;;;;5028407;28;20551;-79
2022/10/10 13:42:49;;;;;;;4.80;0.90;;;;;;;;;;5033404;28;20037;-79
2022/10/10 13:45:27;;;;;;;4.82;1.27;;;;;;;;;;5026448;28;20489;-79
2022/10/10 13:48:02;;;;;;;5.82;0.93;;;;;;;;;;5023676;28;20041;-78
2022/10/10 13:50:30;;;;;;;6.00;0.80;;;;;;;;;;5024228;28;21806;-79
2022/10/10 13:53:15;;;;;;;7.75;1.00;;;;;;;;;;5031533;28;20426;-79
2022/10/10 13:55:41;;;;;;;7.20;1.20;;;;;;;;;;5024413;28;20488;-79
2022/10/10 13:58:09;;;;;;;4.45;1.00;;;;;;;;;;5021435;28;20383;-78
2022/10/10 14:00:37;;;;;;;8.27;1.20;;;;;;;;;;5009201;28;20034;-79
2022/10/10 14:03:17;;;;;;;4.75;1.30;;;;;;;;;;5019005;28;20045;-78
2022/10/10 14:05:45;;;;;;;5.38;1.00;;;;;;;;;;5025111;28;20052;-79
2022/10/10 14:08:18;;;;;;;3.03;0.50;;;;;;;;;;5021164;28;20416;-79
2022/10/10 14:10:54;;;;;;;4.15;0.85;;;;;;;;;;5024098;28;20041;-79
2022/10/10 14:13:20;;;;;;;2.65;0.65;;;;;;;;;;5022292;28;20048;-79
2022/10/10 14:15:46;;;;;;;3.10;0.60;;;;;;;;;;5027578;28;20038;-79
2022/10/10 14:18:17;;;;;;;4.35;0.60;;;;;;;;;;5028332;28;20638;-79
2022/10/10 14:20:43;;;;;;;4.60;0.68;;;;;;;;;;5021982;28;20100;-79
2022/10/10 14:23:10;;;;;;;2.65;0.70;;;;;;;;;;5023393;28;20040;-79
2022/10/10 14:25:40;;;;;;;5.47;0.90;;;;;;;;;;5026461;28;20056;-79
2022/10/10 14:28:06;;;;;;;5.13;0.80;;;;;;;;;;5027290;28;20063;-79
2022/10/10 14:30:32;;;;;;;3.17;0.80;;;;;;;;;;5027111;28;20034;-79
2022/10/10 14:32:58;;;;;;;3.50;0.70;;;;;;;;;;5019379;28;20033;-80
2022/10/10 14:35:24;;;;;;;5.57;0.60;;;;;;;;;;5019925;28;20065;-79
2022/10/10 14:37:50;;;;;;;4.65;0.90;;;;;;;;;;5019615;28;20030;-79
2022/10/10 14:40:18;;;;;;;4.93;0.80;;;;;;;;;;5027282;28;20096;-79
2022/10/10 14:42:45;;;;;;;5.47;1.00;;;;;;;;;;5024945;28;20025;-79
2022/10/10 14:45:15;;;;;;;3.75;0.90;;;;;;;;;;5026000;28;20033;-80
2022/10/10 14:47:41;;;;;;;2.00;0.70;;;;;;;;;;5023090;28;20044;-79